sensor_id;sensor_type;location;lat;lon;timestamp;temperature;humidity
24436;DHT22;12616;52.470;13.436;2022-12-18T00:51:42;-5.10;99.90
24436;DHT22;12616;52.470;13.436;2022-12-18T00:54:51;-5.10;99.90
24436;DHT22;12616;52.470;13.436;2022-12-18T01:00:42;-5.10;99.90
24436;DHT22;12616;52.470;13.436;2022-12-18T02:00:06;-5.60;99.90
24436;DHT22;12616;52.470;13.436;2022-12-18T02:11:42;-5.50;99.90
24436;DHT22;12616;52.470;13.436;2022-12-18T02:17:05;-5.60;99.90
24436;DHT22;12616;52.470;13.436;2022-12-18T02:19:47;-5.50;99.90
24436;DHT22;12616;52.470;13.436;2022-12-18T02:22:27;-5.50;99.90
24436;DHT22;12616;52.470;13.436;2022-12-18T02:25:16;-5.50;99.90
24436;DHT22;12616;52.470;13.436;2022-12-18T02:28:22;-5.40;99.90
24436;DHT22;12616;52.470;13.436;2022-12-18T02:30:56;-5.40;99.90
24436;DHT22;12616;52.470;13.436;2022-12-18T02:33:32;-5.30;99.90
24436;DHT22;12616;52.470;13.436;2022-12-18T02:36:07;-5.30;99.90
24436;DHT22;12616;52.470;13.436;2022-12-18T02:38:36;-5.30;99.90
24436;DHT22;12616;52.470;13.436;2022-12-18T02:41:10;-5.40;99.90
24436;DHT22;12616;52.470;13.436;2022-12-18T02:46:34;-5.60;99.90
24436;DHT22;12616;52.470;13.436;2022-12-18T02:49:17;-5.70;99.90
24436;DHT22;12616;52.470;13.436;2022-12-18T02:51:55;-5.70;99.90
24436;DHT22;12616;52.470;13.436;2022-12-18T02:54:35;-5.70;99.90
24436;DHT22;12616;52.470;13.436;2022-12-18T02:57:10;-5.60;99.90
24436;DHT22;12616;52.470;13.436;2022-12-18T03:00:02;-5.50;99.90
24436;DHT22;12616;52.470;13.436;2022-12-18T03:02:44;-5.40;99.90
24436;DHT22;12616;52.470;13.436;2022-12-18T03:05:18;-5.70;99.90
24436;DHT22;12616;52.470;13.436;2022-12-18T03:07:59;-5.70;99.90
24436;DHT22;12616;52.470;13.436;2022-12-18T03:10:35;-5.70;99.90
24436;DHT22;12616;52.470;13.436;2022-12-18T03:13:17;-5.60;99.90
24436;DHT22;12616;52.470;13.436;2022-12-18T03:16:05;-5.60;99.90
24436;DHT22;12616;52.470;13.436;2022-12-18T03:18:37;-5.50;99.90
24436;DHT22;12616;52.470;13.436;2022-12-18T03:21:26;-5.60;99.90
24436;DHT22;12616;52.470;13.436;2022-12-18T03:24:20;-5.60;99.90
24436;DHT22;12616;52.470;13.436;2022-12-18T03:29:49;-5.60;99.90
24436;DHT22;12616;52.470;13.436;2022-12-18T03:32:31;-5.90;99.90
24436;DHT22;12616;52.470;13.436;2022-12-18T03:43:13;-5.90;99.90
24436;DHT22;12616;52.470;13.436;2022-12-18T03:45:47;-5.80;99.90
24436;DHT22;12616;52.470;13.436;2022-12-18T03:48:31;-5.70;99.90
24436;DHT22;12616;52.470;13.436;2022-12-18T03:51:35;-5.90;99.90
24436;DHT22;12616;52.470;13.436;2022-12-18T03:56:56;-5.70;99.90
24436;DHT22;12616;52.470;13.436;2022-12-18T03:59:45;-5.90;99.90
24436;DHT22;12616;52.470;13.436;2022-12-18T04:08:26;-6.00;99.90
24436;DHT22;12616;52.470;13.436;2022-12-18T04:32:36;-6.10;99.90
24436;DHT22;12616;52.470;13.436;2022-12-18T05:21:54;-5.90;99.90
24436;DHT22;12616;52.470;13.436;2022-12-18T05:25:08;-5.80;99.90
24436;DHT22;12616;52.470;13.436;2022-12-18T05:52:30;-5.70;99.90
24436;DHT22;12616;52.470;13.436;2022-12-18T06:13:42;-5.70;99.90
24436;DHT22;12616;52.470;13.436;2022-12-18T06:19:12;-5.60;99.90
24436;DHT22;12616;52.470;13.436;2022-12-18T07:56:12;-5.70;99.90
24436;DHT22;12616;52.470;13.436;2022-12-18T08:01:55;-5.50;99.90
24436;DHT22;12616;52.470;13.436;2022-12-18T08:30:27;-4.70;99.90
24436;DHT22;12616;52.470;13.436;2022-12-18T08:33:41;-5.40;99.90
24436;DHT22;12616;52.470;13.436;2022-12-18T08:37:25;-5.50;99.90
24436;DHT22;12616;52.470;13.436;2022-12-18T08:40:47;-5.60;99.90
24436;DHT22;12616;52.470;13.436;2022-12-18T08:53:35;-5.40;99.90
24436;DHT22;12616;52.470;13.436;2022-12-18T09:42:21;-5.00;99.90
24436;DHT22;12616;52.470;13.436;2022-12-18T09:44:50;-4.80;99.90
24436;DHT22;12616;52.470;13.436;2022-12-18T09:47:22;-4.80;99.90
24436;DHT22;12616;52.470;13.436;2022-12-18T09:49:55;-4.80;99.90
24436;DHT22;12616;52.470;13.436;2022-12-18T09:57:30;-4.70;1.00
24436;DHT22;12616;52.470;13.436;2022-12-18T10:00:06;-4.80;1.00
24436;DHT22;12616;52.470;13.436;2022-12-18T10:05:12;-4.60;1.00
24436;DHT22;12616;52.470;13.436;2022-12-18T10:07:53;-4.60;1.00
24436;DHT22;12616;52.470;13.436;2022-12-18T10:10:29;-4.50;1.00
24436;DHT22;12616;52.470;13.436;2022-12-18T10:13:07;-4.30;1.00
24436;DHT22;12616;52.470;13.436;2022-12-18T10:15:42;-4.40;1.00
24436;DHT22;12616;52.470;13.436;2022-12-18T10:18:33;-4.30;1.00
24436;DHT22;12616;52.470;13.436;2022-12-18T10:21:10;-4.40;1.00
24436;DHT22;12616;52.470;13.436;2022-12-18T10:23:48;-4.30;1.00
24436;DHT22;12616;52.470;13.436;2022-12-18T10:44:20;-4.00;1.00
24436;DHT22;12616;52.470;13.436;2022-12-18T10:47:18;-4.10;1.00
24436;DHT22;12616;52.470;13.436;2022-12-18T10:52:25;-3.90;1.00
24436;DHT22;12616;52.470;13.436;2022-12-18T10:54:56;-3.90;1.00
24436;DHT22;12616;52.470;13.436;2022-12-18T10:57:33;-3.80;1.00
24436;DHT22;12616;52.470;13.436;2022-12-18T11:00:32;-3.80;1.00
24436;DHT22;12616;52.470;13.436;2022-12-18T11:03:29;-3.80;1.00
24436;DHT22;12616;52.470;13.436;2022-12-18T11:13:31;-4.00;1.00
24436;DHT22;12616;52.470;13.436;2022-12-18T11:18:32;-3.70;1.00
24436;DHT22;12616;52.470;13.436;2022-12-18T11:21:13;-3.70;99.90
24436;DHT22;12616;52.470;13.436;2022-12-18T11:23:52;-3.80;99.90
24436;DHT22;12616;52.470;13.436;2022-12-18T11:28:50;-4.10;99.90
24436;DHT22;12616;52.470;13.436;2022-12-18T11:31:26;-4.10;1.00
24436;DHT22;12616;52.470;13.436;2022-12-18T11:34:02;-4.10;1.00
24436;DHT22;12616;52.470;13.436;2022-12-18T11:36:34;-4.00;1.00
24436;DHT22;12616;52.470;13.436;2022-12-18T11:39:11;-4.10;1.00
24436;DHT22;12616;52.470;13.436;2022-12-18T11:44:38;-4.00;1.00
24436;DHT22;12616;52.470;13.436;2022-12-18T11:47:15;-4.10;1.00
24436;DHT22;12616;52.470;13.436;2022-12-18T11:49:47;-4.00;1.00
24436;DHT22;12616;52.470;13.436;2022-12-18T11:52:19;-4.10;1.00
24436;DHT22;12616;52.470;13.436;2022-12-18T11:55:04;-4.10;1.00
24436;DHT22;12616;52.470;13.436;2022-12-18T11:57:46;-4.00;1.00
24436;DHT22;12616;52.470;13.436;2022-12-18T12:00:19;-4.10;1.00
24436;DHT22;12616;52.470;13.436;2022-12-18T12:06:05;-3.80;1.00
24436;DHT22;12616;52.470;13.436;2022-12-18T12:08:46;-4.00;1.00
24436;DHT22;12616;52.470;13.436;2022-12-18T12:11:35;-3.80;1.00
24436;DHT22;12616;52.470;13.436;2022-12-18T12:17:04;-3.90;1.00
24436;DHT22;12616;52.470;13.436;2022-12-18T12:19:41;-3.90;1.00
24436;DHT22;12616;52.470;13.436;2022-12-18T12:22:21;-4.10;1.00
24436;DHT22;12616;52.470;13.436;2022-12-18T12:24:59;-4.00;1.00
24436;DHT22;12616;52.470;13.436;2022-12-18T12:27:39;-3.80;1.00
24436;DHT22;12616;52.470;13.436;2022-12-18T12:30:16;-3.80;1.00
24436;DHT22;12616;52.470;13.436;2022-12-18T12:33:04;-3.80;1.00
24436;DHT22;12616;52.470;13.436;2022-12-18T12:38:21;-3.70;1.00
24436;DHT22;12616;52.470;13.436;2022-12-18T12:40:57;-3.60;1.00
24436;DHT22;12616;52.470;13.436;2022-12-18T12:43:37;-3.60;99.90
24436;DHT22;12616;52.470;13.436;2022-12-18T12:48:41;-3.70;99.90
24436;DHT22;12616;52.470;13.436;2022-12-18T12:51:18;-3.70;99.90
24436;DHT22;12616;52.470;13.436;2022-12-18T12:54:13;-3.50;99.90
24436;DHT22;12616;52.470;13.436;2022-12-18T12:56:54;-3.50;99.90
24436;DHT22;12616;52.470;13.436;2022-12-18T12:59:35;-3.50;99.90
24436;DHT22;12616;52.470;13.436;2022-12-18T13:02:22;-3.60;99.90
24436;DHT22;12616;52.470;13.436;2022-12-18T13:04:56;-3.70;99.90
24436;DHT22;12616;52.470;13.436;2022-12-18T13:07:27;-3.70;99.90
24436;DHT22;12616;52.470;13.436;2022-12-18T13:10:25;-3.60;1.00
24436;DHT22;12616;52.470;13.436;2022-12-18T13:15:26;-3.50;99.90
24436;DHT22;12616;52.470;13.436;2022-12-18T13:18:20;-3.50;99.90
24436;DHT22;12616;52.470;13.436;2022-12-18T13:20:50;-3.40;99.90
24436;DHT22;12616;52.470;13.436;2022-12-18T13:23:35;-3.40;99.90
24436;DHT22;12616;52.470;13.436;2022-12-18T13:26:36;-3.40;99.90
24436;DHT22;12616;52.470;13.436;2022-12-18T13:43:37;-3.70;99.90
24436;DHT22;12616;52.470;13.436;2022-12-18T13:46:23;-3.70;99.90
24436;DHT22;12616;52.470;13.436;2022-12-18T13:48:59;-3.60;99.90
24436;DHT22;12616;52.470;13.436;2022-12-18T13:54:05;-3.70;99.90
24436;DHT22;12616;52.470;13.436;2022-12-18T13:59:16;-3.90;99.90
24436;DHT22;12616;52.470;13.436;2022-12-18T14:01:46;-3.90;99.90
24436;DHT22;12616;52.470;13.436;2022-12-18T14:04:24;-3.80;99.90
24436;DHT22;12616;52.470;13.436;2022-12-18T14:06:55;-3.80;99.90
24436;DHT22;12616;52.470;13.436;2022-12-18T14:09:26;-3.80;99.90
24436;DHT22;12616;52.470;13.436;2022-12-18T14:11:54;-3.70;99.90
24436;DHT22;12616;52.470;13.436;2022-12-18T14:14:47;-3.60;99.90
24436;DHT22;12616;52.470;13.436;2022-12-18T14:17:19;-3.60;99.90
24436;DHT22;12616;52.470;13.436;2022-12-18T14:19:50;-3.60;99.90
24436;DHT22;12616;52.470;13.436;2022-12-18T14:22:23;-3.70;99.90
24436;DHT22;12616;52.470;13.436;2022-12-18T14:25:14;-3.60;99.90
24436;DHT22;12616;52.470;13.436;2022-12-18T14:27:43;-3.60;99.90
24436;DHT22;12616;52.470;13.436;2022-12-18T14:30:26;-3.50;99.90
24436;DHT22;12616;52.470;13.436;2022-12-18T14:33:09;-3.60;99.90
24436;DHT22;12616;52.470;13.436;2022-12-18T14:35:54;-3.70;99.90
24436;DHT22;12616;52.470;13.436;2022-12-18T14:38:31;-3.60;99.90
24436;DHT22;12616;52.470;13.436;2022-12-18T14:41:10;-3.70;99.90
24436;DHT22;12616;52.470;13.436;2022-12-18T14:43:42;-3.70;99.90
24436;DHT22;12616;52.470;13.436;2022-12-18T14:46:29;-3.80;99.90
24436;DHT22;12616;52.470;13.436;2022-12-18T14:48:58;-3.80;99.90
24436;DHT22;12616;52.470;13.436;2022-12-18T14:51:27;-4.00;99.90
24436;DHT22;12616;52.470;13.436;2022-12-18T14:56:28;-4.10;99.90
24436;DHT22;12616;52.470;13.436;2022-12-18T14:59:00;-4.00;99.90
24436;DHT22;12616;52.470;13.436;2022-12-18T15:01:36;-4.00;99.90
24436;DHT22;12616;52.470;13.436;2022-12-18T15:04:05;-4.00;99.90
24436;DHT22;12616;52.470;13.436;2022-12-18T15:09:22;-4.00;99.90
24436;DHT22;12616;52.470;13.436;2022-12-18T15:14:41;-3.90;99.90
24436;DHT22;12616;52.470;13.436;2022-12-18T15:17:17;-3.90;99.90
24436;DHT22;12616;52.470;13.436;2022-12-18T15:22:27;-4.10;99.90
24436;DHT22;12616;52.470;13.436;2022-12-18T15:24:58;-4.20;99.90
24436;DHT22;12616;52.470;13.436;2022-12-18T15:27:30;-4.10;99.90
24436;DHT22;12616;52.470;13.436;2022-12-18T15:30:25;-4.10;99.90
24436;DHT22;12616;52.470;13.436;2022-12-18T16:02:27;-3.90;99.90
24436;DHT22;12616;52.470;13.436;2022-12-18T18:17:22;-4.30;49.20
24436;DHT22;12616;52.470;13.436;2022-12-18T19:19:13;-4.60;1.00
24436;DHT22;12616;52.470;13.436;2022-12-18T19:51:28;-4.60;1.00
24436;DHT22;12616;52.470;13.436;2022-12-18T20:23:24;-4.70;1.00
24436;DHT22;12616;52.470;13.436;2022-12-18T20:42:13;-4.70;1.00
24436;DHT22;12616;52.470;13.436;2022-12-18T21:28:52;-4.60;1.00
24436;DHT22;12616;52.470;13.436;2022-12-18T21:31:24;-4.60;1.00
24436;DHT22;12616;52.470;13.436;2022-12-18T21:44:58;-4.50;1.00
24436;DHT22;12616;52.470;13.436;2022-12-18T22:46:37;-4.30;99.90
24436;DHT22;12616;52.470;13.436;2022-12-18T22:49:11;-4.40;99.90
24436;DHT22;12616;52.470;13.436;2022-12-18T22:59:18;-4.40;99.90
24436;DHT22;12616;52.470;13.436;2022-12-18T23:01:48;-4.40;99.90
24436;DHT22;12616;52.470;13.436;2022-12-18T23:45:13;-4.40;99.90
